Terminal Aerodrome Forecast
Issued by NWS

Home | Current Version | Previous Version | Graphics & Text | Print | Product List | Glossary On
Versions: 1 2 3 4 5 6 7 8 9 10 11 12 13 14 15 16 17 18 19 20 21 22 23 24
000
FTUS45 KGGW 281700
TAFOLF
TAF
KOLF 281723Z 2818/0118 29010KT P6SM BKN030
     FM282000 29012KT P6SM SCT030
     FM010000 28009KT P6SM BKN060
     FM010500 26008KT P6SM VCSH BKN035=

USA.gov is the U.S. government's official web portal to all federal, state and local government web resources and services.